Waskish, Minnesota
Current Conditions -  °F | °C
As of 8:13 AM on Tuesday 27 Jan 2015 (Local Time) from KVWU Reporting Station
Overcast Overcast  
Wind Chill: 25°   Ceiling: 400
Heat Index: 25°   Visibility: 7mi
Dew Point: 23°   Wind: 0mph
Humidity: 93%   Direction: NA
Pressure: 30.07"   Gusts: NA
Location:  48.16°N, 94.51°W
Report Text: KVWU 271413Z AUTO 00000KT 7SM OVC004 M04/M05 A3007 RMK AO2
Loading
Personal Weather Stations






























Interactive Weather Map New forecast layout! Learn more

10-Day Weather Forecast

Advertisements
Track Severe Weather on mobile